createdAt,value
2019-04-29T00:00:17.261Z,90.70
2019-04-29T00:02:43.622Z,91.20
2019-04-29T00:05:10.557Z,91.10
2019-04-29T00:07:38.160Z,91.30
2019-04-29T00:10:07.256Z,91.10
2019-04-29T00:12:33.985Z,91.80
2019-04-29T00:15:07.873Z,91.80
2019-04-29T00:17:36.336Z,91.50
2019-04-29T00:20:09.884Z,91.10
2019-04-29T00:22:36.329Z,91.40
2019-04-29T00:25:03.541Z,92.00
2019-04-29T00:27:30.001Z,92.50
2019-04-29T00:29:56.228Z,92.40
2019-04-29T00:32:22.918Z,92.40
2019-04-29T00:34:49.472Z,92.10
2019-04-29T00:37:34.345Z,92.00
2019-04-29T00:40:08.226Z,91.60
2019-04-29T00:42:36.832Z,91.00
2019-04-29T00:45:05.777Z,90.60
2019-04-29T00:47:51.949Z,90.10
2019-04-29T00:50:18.466Z,90.00
2019-04-29T00:52:44.738Z,89.80
2019-04-29T00:55:16.539Z,90.20
2019-04-29T00:57:42.905Z,90.20
2019-04-29T01:00:13.367Z,90.30
2019-04-29T01:02:39.975Z,90.30
2019-04-29T01:05:06.417Z,90.70
2019-04-29T01:07:32.814Z,91.70
2019-04-29T01:09:59.381Z,92.40
2019-04-29T01:12:26.101Z,92.30
2019-04-29T01:14:52.703Z,92.00
2019-04-29T01:17:19.038Z,92.00
2019-04-29T01:19:45.505Z,92.10
2019-04-29T01:22:11.764Z,91.80
2019-04-29T01:24:38.394Z,91.10
2019-04-29T01:27:06.935Z,90.60
2019-04-29T01:29:34.185Z,90.50
2019-04-29T01:32:00.781Z,90.90
2019-04-29T01:34:35.478Z,91.10
2019-04-29T01:37:01.836Z,90.90
2019-04-29T01:39:30.436Z,90.90
2019-04-29T01:41:58.617Z,90.80
2019-04-29T01:44:26.931Z,90.50
2019-04-29T01:46:54.505Z,91.10
2019-04-29T01:49:21.176Z,92.10
2019-04-29T01:51:47.780Z,91.70
2019-04-29T01:54:14.440Z,91.60
2019-04-29T01:56:41.058Z,91.30
2019-04-29T01:59:07.716Z,91.00
2019-04-29T02:01:34.337Z,90.70
2019-04-29T02:04:00.592Z,90.30
2019-04-29T02:06:27.304Z,90.00
2019-04-29T02:08:55.174Z,89.80
2019-04-29T02:11:21.709Z,89.90
2019-04-29T02:13:48.368Z,90.20
2019-04-29T02:16:15.090Z,90.30
2019-04-29T02:18:41.657Z,90.10
2019-04-29T02:21:08.262Z,90.00
2019-04-29T02:23:36.832Z,90.10
2019-04-29T02:26:03.192Z,90.20
2019-04-29T02:28:29.845Z,89.80
2019-04-29T02:30:56.659Z,88.40
2019-04-29T02:33:23.133Z,88.50
2019-04-29T02:35:49.757Z,90.20
2019-04-29T02:38:30.259Z,90.70
2019-04-29T02:41:04.406Z,90.80
2019-04-29T02:43:32.891Z,90.50
2019-04-29T02:45:59.222Z,90.60
2019-04-29T02:48:29.998Z,90.90
2019-04-29T02:50:53.758Z,91.90
2019-04-29T02:53:20.369Z,92.30
2019-04-29T02:55:48.534Z,92.30
2019-04-29T02:58:34.659Z,92.10
2019-04-29T03:01:19.928Z,91.80
2019-04-29T03:03:50.798Z,91.70
2019-04-29T03:06:17.450Z,91.90
2019-04-29T03:08:44.129Z,92.50
2019-04-29T03:11:11.524Z,92.30
2019-04-29T03:13:38.229Z,91.70
2019-04-29T03:16:04.803Z,91.40
2019-04-29T03:18:32.931Z,91.10
2019-04-29T03:21:03.826Z,91.00
2019-04-29T03:23:30.519Z,91.60
2019-04-29T03:25:57.196Z,91.70
2019-04-29T03:28:23.691Z,91.40
2019-04-29T03:30:50.331Z,91.30
2019-04-29T03:33:16.696Z,91.30
2019-04-29T03:35:43.298Z,91.70
2019-04-29T03:38:09.863Z,91.80
2019-04-29T03:40:36.477Z,91.80
2019-04-29T03:43:03.349Z,91.40
2019-04-29T03:45:29.762Z,91.30
2019-04-29T03:47:56.414Z,91.20
2019-04-29T03:50:23.029Z,91.10
2019-04-29T03:52:50.558Z,91.40
2019-04-29T03:55:17.188Z,91.00
2019-04-29T03:57:43.766Z,92.50
2019-04-29T04:00:12.533Z,93.00
2019-04-29T04:02:43.886Z,92.40
2019-04-29T04:08:21.129Z,91.70
2019-04-29T04:10:48.205Z,91.50
2019-04-29T04:13:14.908Z,91.70
2019-04-29T04:15:41.642Z,91.70
2019-04-29T04:18:15.605Z,91.70
2019-04-29T04:20:42.181Z,92.30
2019-04-29T04:23:08.750Z,91.80
2019-04-29T04:25:35.558Z,91.10
2019-04-29T04:28:02.225Z,90.80
2019-04-29T04:30:28.639Z,91.20
2019-04-29T04:32:55.317Z,90.70
2019-04-29T04:35:21.692Z,90.40
2019-04-29T04:37:48.182Z,90.60
2019-04-29T04:40:22.919Z,91.20
2019-04-29T04:42:49.237Z,91.40
2019-04-29T04:45:16.380Z,91.30
2019-04-29T04:47:42.934Z,91.50
2019-04-29T04:50:10.121Z,91.40
2019-04-29T04:52:36.610Z,90.90
2019-04-29T04:55:05.945Z,90.60
2019-04-29T04:57:32.328Z,90.60
2019-04-29T04:59:58.982Z,91.20
2019-04-29T05:02:26.513Z,91.00
2019-04-29T05:04:53.036Z,91.10
2019-04-29T05:07:19.298Z,91.00
2019-04-29T05:09:45.507Z,91.00
2019-04-29T05:12:14.115Z,91.10
2019-04-29T05:14:39.772Z,90.80
2019-04-29T05:17:05.997Z,91.10
2019-04-29T05:19:32.241Z,91.00
2019-04-29T05:21:58.484Z,90.40
2019-04-29T05:24:24.761Z,90.00
2019-04-29T05:26:51.157Z,89.60
2019-04-29T05:29:17.917Z,90.10
2019-04-29T05:31:44.453Z,89.60
2019-04-29T05:34:11.621Z,89.00
2019-04-29T05:36:40.015Z,88.00
2019-04-29T05:39:08.901Z,87.40
2019-04-29T05:41:36.394Z,88.30
2019-04-29T05:44:04.982Z,87.60
2019-04-29T05:46:33.129Z,87.70
2019-04-29T05:49:02.331Z,88.20
2019-04-29T05:51:29.687Z,87.90
2019-04-29T05:53:57.905Z,88.40
2019-04-29T05:56:24.328Z,87.40
2019-04-29T05:58:50.937Z,86.40
2019-04-29T06:01:19.044Z,86.40
2019-04-29T06:03:45.292Z,86.00
2019-04-29T06:06:12.382Z,85.40
2019-04-29T06:08:39.486Z,85.40
2019-04-29T06:11:06.920Z,85.00
2019-04-29T06:13:33.142Z,83.80
2019-04-29T06:15:59.377Z,83.70
2019-04-29T06:18:25.632Z,83.50
2019-04-29T06:20:51.765Z,83.00
2019-04-29T06:23:19.025Z,82.50
2019-04-29T06:25:46.049Z,82.90
2019-04-29T06:28:12.301Z,82.00
2019-04-29T06:30:40.596Z,80.60
2019-04-29T06:33:06.696Z,82.40
2019-04-29T06:35:32.964Z,81.80
2019-04-29T06:37:59.218Z,80.00
2019-04-29T06:40:25.440Z,78.50
2019-04-29T06:42:53.467Z,77.70
2019-04-29T06:45:19.804Z,75.40
2019-04-29T06:47:46.150Z,74.80
2019-04-29T06:50:13.477Z,74.70
2019-04-29T06:52:39.724Z,73.80
2019-04-29T06:55:06.154Z,73.90
2019-04-29T06:57:33.616Z,74.00
2019-04-29T06:59:59.770Z,73.10
2019-04-29T07:02:25.989Z,70.50
2019-04-29T07:04:52.364Z,65.60
2019-04-29T07:07:18.584Z,64.70
2019-04-29T07:09:44.841Z,61.70
2019-04-29T07:12:12.459Z,57.70
2019-04-29T07:14:39.094Z,52.60
2019-04-29T07:17:05.925Z,48.40
2019-04-29T07:19:33.407Z,46.60
2019-04-29T07:21:59.652Z,45.40
2019-04-29T07:24:25.972Z,44.30
2019-04-29T07:26:52.218Z,41.90
2019-04-29T07:29:18.887Z,40.20
2019-04-29T07:31:45.700Z,38.40
2019-04-29T07:34:11.842Z,39.20
2019-04-29T07:36:38.121Z,43.00
2019-04-29T07:39:05.688Z,47.00
2019-04-29T07:41:32.041Z,47.30
2019-04-29T07:43:59.306Z,48.20
2019-04-29T07:46:27.572Z,48.00
2019-04-29T07:49:01.228Z,48.70
2019-04-29T07:51:22.329Z,49.00
2019-04-29T07:53:48.585Z,51.40
2019-04-29T07:56:14.921Z,52.60
2019-04-29T07:58:41.162Z,55.90
2019-04-29T08:01:07.485Z,55.70
2019-04-29T08:03:33.836Z,55.10
2019-04-29T08:06:00.274Z,55.20
2019-04-29T08:08:28.429Z,56.00
2019-04-29T08:10:56.735Z,53.80
2019-04-29T08:13:25.313Z,49.20
2019-04-29T08:15:51.528Z,48.10
2019-04-29T08:18:18.217Z,45.60
2019-04-29T08:20:44.618Z,42.90
2019-04-29T08:23:12.104Z,43.70
2019-04-29T08:25:38.342Z,45.20
2019-04-29T08:28:04.706Z,43.40
2019-04-29T08:30:31.016Z,43.20
2019-04-29T08:32:57.273Z,42.10
2019-04-29T08:35:23.536Z,40.20
2019-04-29T08:37:49.804Z,41.40
2019-04-29T08:40:17.035Z,43.80
2019-04-29T08:42:52.030Z,42.10
2019-04-29T08:45:20.140Z,47.10
2019-04-29T08:47:48.270Z,48.10
2019-04-29T08:50:14.633Z,47.70
2019-04-29T08:52:40.881Z,46.00
2019-04-29T08:55:07.247Z,45.30
2019-04-29T08:57:36.572Z,44.00
2019-04-29T09:00:04.311Z,44.70
2019-04-29T09:02:34.975Z,45.10
2019-04-29T09:04:58.592Z,44.10
2019-04-29T09:07:24.804Z,43.00
2019-04-29T09:09:51.021Z,39.80
2019-04-29T09:12:19.400Z,36.80
2019-04-29T09:14:45.506Z,34.40
2019-04-29T09:17:20.294Z,32.80
2019-04-29T09:19:39.793Z,35.20
2019-04-29T09:22:08.021Z,36.20
2019-04-29T09:24:37.141Z,34.90
2019-04-29T09:27:17.545Z,33.00
2019-04-29T09:29:46.399Z,31.60
2019-04-29T09:32:11.920Z,35.80
2019-04-29T09:34:38.148Z,38.90
2019-04-29T09:37:04.512Z,39.20
2019-04-29T09:39:42.814Z,37.90
2019-04-29T09:42:08.053Z,37.10
2019-04-29T09:47:14.427Z,33.20
2019-04-29T09:49:40.681Z,35.20
2019-04-29T09:52:06.902Z,35.10
2019-04-29T09:54:33.181Z,36.10
2019-04-29T09:56:59.408Z,33.20
2019-04-29T09:59:33.745Z,31.00
2019-04-29T10:02:02.064Z,29.90
2019-04-29T10:04:30.341Z,31.00
2019-04-29T10:06:58.169Z,36.20
2019-04-29T10:09:24.492Z,39.40
2019-04-29T10:11:50.726Z,43.30
2019-04-29T10:14:17.083Z,49.30
2019-04-29T10:16:51.166Z,50.90
2019-04-29T10:19:17.892Z,52.20
2019-04-29T10:21:44.046Z,51.20
2019-04-29T10:24:10.955Z,49.30
2019-04-29T10:26:37.286Z,47.50
2019-04-29T10:29:18.490Z,45.70
2019-04-29T10:31:42.505Z,45.00
2019-04-29T10:34:08.824Z,46.00
2019-04-29T10:36:35.069Z,46.10
2019-04-29T10:39:03.425Z,47.40
2019-04-29T10:44:38.456Z,49.10
2019-04-29T10:47:09.893Z,48.50
2019-04-29T10:49:40.574Z,41.20
2019-04-29T10:52:07.008Z,35.80
2019-04-29T10:54:34.002Z,32.80
2019-04-29T10:57:00.339Z,35.20
2019-04-29T10:59:35.614Z,35.70
2019-04-29T11:02:17.502Z,39.40
2019-04-29T11:04:45.048Z,38.80
2019-04-29T11:07:14.318Z,33.40
2019-04-29T11:09:46.327Z,33.10
2019-04-29T11:12:13.337Z,32.00
2019-04-29T11:14:39.589Z,28.40
2019-04-29T11:17:15.861Z,27.60
2019-04-29T11:19:35.026Z,26.90
2019-04-29T11:22:03.304Z,25.90
2019-04-29T11:24:46.833Z,24.40
2019-04-29T11:27:15.282Z,23.20
2019-04-29T11:29:41.504Z,23.20
2019-04-29T11:32:09.548Z,25.70
2019-04-29T11:34:53.494Z,26.60
2019-04-29T11:37:19.642Z,25.80
2019-04-29T11:39:46.281Z,25.40
2019-04-29T11:42:14.669Z,27.50
2019-04-29T11:44:40.988Z,29.40
2019-04-29T11:47:07.616Z,32.10
2019-04-29T11:49:35.840Z,34.30
2019-04-29T11:52:09.662Z,36.50
2019-04-29T11:54:30.106Z,35.80
2019-04-29T11:56:56.505Z,38.40
2019-04-29T11:59:33.793Z,38.50
2019-04-29T12:02:11.213Z,33.70
2019-04-29T12:04:42.106Z,29.60
2019-04-29T12:07:07.457Z,28.10
2019-04-29T12:09:34.712Z,28.80
2019-04-29T12:12:01.135Z,28.50
2019-04-29T12:14:37.949Z,29.50
2019-04-29T12:17:20.233Z,26.70
2019-04-29T12:19:48.409Z,25.60
2019-04-29T12:22:26.822Z,26.50
2019-04-29T12:24:42.690Z,26.60
2019-04-29T12:27:09.820Z,27.80
2019-04-29T12:29:36.080Z,31.90
2019-04-29T12:32:26.949Z,35.70
2019-04-29T12:34:55.213Z,41.00
2019-04-29T12:37:38.354Z,43.20
2019-04-29T12:40:24.635Z,41.20
2019-04-29T12:42:55.116Z,35.60
2019-04-29T12:45:25.701Z,36.00
2019-04-29T12:47:52.017Z,35.70
2019-04-29T12:50:21.727Z,33.10
2019-04-29T12:52:46.348Z,28.00
2019-04-29T12:55:20.385Z,25.50
2019-04-29T12:57:42.497Z,25.20
2019-04-29T13:00:11.461Z,25.50
2019-04-29T13:02:55.594Z,29.30
2019-04-29T13:05:24.510Z,34.60
2019-04-29T13:07:58.401Z,38.20
2019-04-29T13:10:29.537Z,40.80
2019-04-29T13:12:58.100Z,42.90
2019-04-29T13:15:33.307Z,42.50
2019-04-29T13:18:12.739Z,39.10
2019-04-29T13:20:35.369Z,36.30
2019-04-29T13:23:16.835Z,31.60
2019-04-29T13:25:29.724Z,30.10
2019-04-29T13:28:03.749Z,34.40
2019-04-29T13:30:24.102Z,36.90
2019-04-29T13:32:50.359Z,39.00
2019-04-29T13:35:16.678Z,42.30
2019-04-29T13:37:42.933Z,43.60
2019-04-29T13:40:10.293Z,44.00
2019-04-29T13:42:37.190Z,44.30
2019-04-29T13:45:13.611Z,43.50
2019-04-29T13:47:55.854Z,45.20
2019-04-29T13:50:38.887Z,47.30
2019-04-29T13:52:52.034Z,48.40
2019-04-29T13:55:46.196Z,47.80
2019-04-29T13:57:49.520Z,49.00
2019-04-29T14:00:28.997Z,47.60
2019-04-29T14:03:00.095Z,47.40
2019-04-29T14:05:28.409Z,48.40
2019-04-29T14:07:54.645Z,47.80
2019-04-29T14:10:20.877Z,47.60
2019-04-29T14:12:49.365Z,44.20
2019-04-29T14:15:15.536Z,43.00
2019-04-29T14:17:41.770Z,41.30
2019-04-29T14:20:10.711Z,41.20
2019-04-29T14:22:37.056Z,40.80
2019-04-29T14:25:04.003Z,41.60
2019-04-29T14:27:30.258Z,43.00
2019-04-29T14:29:56.893Z,45.10
2019-04-29T14:32:34.605Z,46.60
2019-04-29T14:34:55.395Z,47.40
2019-04-29T14:37:25.326Z,48.10
2019-04-29T14:39:49.680Z,45.80
2019-04-29T14:42:32.988Z,45.80
2019-04-29T14:45:06.906Z,43.90
2019-04-29T14:47:43.855Z,43.70
2019-04-29T14:50:15.534Z,43.10
2019-04-29T14:52:40.331Z,42.80
2019-04-29T14:55:06.650Z,42.30
2019-04-29T14:57:32.973Z,42.40
2019-04-29T14:59:59.683Z,43.70
2019-04-29T15:02:27.141Z,45.30
2019-04-29T15:04:53.474Z,47.30
2019-04-29T15:07:19.705Z,46.00
2019-04-29T15:09:55.870Z,47.20
2019-04-29T15:12:51.105Z,46.70
2019-04-29T15:15:12.384Z,48.00
2019-04-29T15:17:49.472Z,46.20
2019-04-29T15:20:20.579Z,46.70
2019-04-29T15:22:46.760Z,45.90
2019-04-29T15:25:41.085Z,45.70
2019-04-29T15:28:04.766Z,44.20
2019-04-29T15:30:31.689Z,45.80
2019-04-29T15:32:59.769Z,45.90
2019-04-29T15:35:26.180Z,47.60
2019-04-29T15:37:52.356Z,47.20
2019-04-29T15:40:20.745Z,47.60
2019-04-29T15:42:51.220Z,48.50
2019-04-29T15:45:14.785Z,49.60
2019-04-29T15:47:41.563Z,50.00
2019-04-29T15:50:18.668Z,50.20
2019-04-29T15:52:37.416Z,50.70
2019-04-29T15:55:04.460Z,48.10
2019-04-29T15:57:30.919Z,47.00
2019-04-29T15:59:59.742Z,45.40
2019-04-29T16:02:25.701Z,44.00
2019-04-29T16:05:04.598Z,43.90
2019-04-29T16:07:39.865Z,43.40
2019-04-29T16:10:14.490Z,44.40
2019-04-29T16:12:50.950Z,45.40
2019-04-29T16:15:18.569Z,48.40
2019-04-29T16:17:47.835Z,47.10
2019-04-29T16:20:14.277Z,47.50
2019-04-29T16:22:40.493Z,47.80
2019-04-29T16:25:11.101Z,47.80
2019-04-29T16:27:35.015Z,47.80
2019-04-29T16:30:01.475Z,49.50
2019-04-29T16:32:32.621Z,49.90
2019-04-29T16:34:58.794Z,51.70
2019-04-29T16:37:31.883Z,52.60
2019-04-29T16:39:59.691Z,52.40
2019-04-29T16:42:25.939Z,51.50
2019-04-29T16:44:52.254Z,51.40
2019-04-29T16:47:19.120Z,51.60
2019-04-29T16:49:45.345Z,52.30
2019-04-29T16:52:11.560Z,52.30
2019-04-29T16:54:37.926Z,52.00
2019-04-29T16:57:04.771Z,52.10
2019-04-29T16:59:31.426Z,53.10
2019-04-29T17:01:58.162Z,52.30
2019-04-29T17:04:24.596Z,53.70
2019-04-29T17:07:11.358Z,54.20
2019-04-29T17:09:29.702Z,54.60
2019-04-29T17:11:58.295Z,54.30
2019-04-29T17:14:24.417Z,54.10
2019-04-29T17:16:50.641Z,54.00
2019-04-29T17:19:17.969Z,54.40
2019-04-29T17:21:44.240Z,54.20
2019-04-29T17:24:10.590Z,53.40
2019-04-29T17:26:47.537Z,54.40
2019-04-29T17:29:38.301Z,54.60
2019-04-29T17:32:07.794Z,54.00
2019-04-29T17:34:58.223Z,53.70
2019-04-29T17:37:04.637Z,54.10
2019-04-29T17:39:31.006Z,54.40
2019-04-29T17:41:57.353Z,54.70
2019-04-29T17:44:40.581Z,54.50
2019-04-29T17:47:25.392Z,54.80
2019-04-29T17:49:53.560Z,54.20
2019-04-29T17:52:21.869Z,54.70
2019-04-29T17:54:49.990Z,55.10
2019-04-29T17:57:28.649Z,55.10
2019-04-29T18:00:08.680Z,54.90
2019-04-29T18:02:46.300Z,55.90
2019-04-29T18:05:26.917Z,55.70
2019-04-29T18:07:53.149Z,56.10
2019-04-29T18:10:24.444Z,56.70
2019-04-29T18:12:49.327Z,57.00
2019-04-29T18:15:20.152Z,57.80
2019-04-29T18:17:45.877Z,59.30
2019-04-29T18:20:30.801Z,60.70
2019-04-29T18:22:56.104Z,62.10
2019-04-29T18:25:30.757Z,63.20
2019-04-29T18:27:53.176Z,64.10
2019-04-29T18:30:33.199Z,65.10
2019-04-29T18:32:50.256Z,65.80
2019-04-29T18:35:17.101Z,66.70
2019-04-29T18:37:43.502Z,67.80
2019-04-29T18:40:10.332Z,68.20
2019-04-29T18:42:38.355Z,69.10
2019-04-29T18:45:07.072Z,69.20
2019-04-29T18:47:35.464Z,69.50
2019-04-29T18:50:05.035Z,70.10
2019-04-29T18:52:31.548Z,69.70
2019-04-29T18:54:57.674Z,70.40
2019-04-29T18:57:30.071Z,70.50
2019-04-29T18:59:51.937Z,70.90
2019-04-29T19:02:18.291Z,71.10
2019-04-29T19:04:56.557Z,71.50
2019-04-29T19:07:23.109Z,71.40
2019-04-29T19:09:49.421Z,71.70
2019-04-29T19:12:15.681Z,71.40
2019-04-29T19:14:42.004Z,71.80
2019-04-29T19:17:08.363Z,71.90
2019-04-29T19:19:35.901Z,72.10
2019-04-29T19:22:07.786Z,71.80
2019-04-29T19:24:35.807Z,72.40
2019-04-29T19:27:00.771Z,72.40
2019-04-29T19:29:27.551Z,73.00
2019-04-29T19:31:54.974Z,73.00
2019-04-29T19:34:21.624Z,72.80
2019-04-29T19:36:50.599Z,73.10
2019-04-29T19:39:16.839Z,73.20
2019-04-29T19:41:49.378Z,73.00
2019-04-29T19:44:15.407Z,72.80
2019-04-29T19:46:41.407Z,72.50
2019-04-29T19:49:10.030Z,72.30
2019-04-29T19:51:39.223Z,72.00
2019-04-29T19:54:05.168Z,72.40
2019-04-29T19:56:31.592Z,72.70
2019-04-29T19:58:58.488Z,73.10
2019-04-29T20:01:29.907Z,72.70
2019-04-29T20:04:06.451Z,73.00
2019-04-29T20:06:33.294Z,73.10
2019-04-29T20:09:01.974Z,73.30
2019-04-29T20:11:32.862Z,73.40
2019-04-29T20:14:04.992Z,73.00
2019-04-29T20:16:43.034Z,72.50
2019-04-29T20:19:18.074Z,72.80
2019-04-29T20:21:42.752Z,72.60
2019-04-29T20:24:15.099Z,72.50
2019-04-29T20:26:37.274Z,72.50
2019-04-29T20:29:07.047Z,72.50
2019-04-29T20:31:35.621Z,73.00
2019-04-29T20:34:01.616Z,73.10
2019-04-29T20:36:38.291Z,73.40
2019-04-29T20:38:56.360Z,73.60
2019-04-29T20:41:37.658Z,74.00
2019-04-29T20:43:51.293Z,73.90
2019-04-29T20:46:18.199Z,74.10
2019-04-29T20:48:45.631Z,74.30
2019-04-29T20:51:14.121Z,74.60
2019-04-29T20:53:42.420Z,75.10
2019-04-29T20:56:12.483Z,75.30
2019-04-29T20:58:37.184Z,75.20
2019-04-29T21:01:10.926Z,75.60
2019-04-29T21:03:35.579Z,75.70
2019-04-29T21:06:03.158Z,76.20
2019-04-29T21:08:30.436Z,76.70
2019-04-29T21:10:58.586Z,76.90
2019-04-29T21:13:26.704Z,77.70
2019-04-29T21:16:07.064Z,77.80
2019-04-29T21:18:35.318Z,78.30
2019-04-29T21:21:04.615Z,78.80
2019-04-29T21:23:31.510Z,79.90
2019-04-29T21:26:00.459Z,80.20
2019-04-29T21:28:26.086Z,80.20
2019-04-29T21:30:52.209Z,80.00
2019-04-29T21:33:21.434Z,80.20
2019-04-29T21:35:49.535Z,80.70
2019-04-29T21:38:26.013Z,81.30
2019-04-29T21:41:09.398Z,82.40
2019-04-29T21:43:37.696Z,82.50
2019-04-29T21:46:05.719Z,82.60
2019-04-29T21:48:35.133Z,82.50
2019-04-29T21:51:01.434Z,82.70
2019-04-29T21:53:31.636Z,83.30
2019-04-29T21:55:59.653Z,83.90
2019-04-29T21:58:28.609Z,83.70
2019-04-29T22:00:59.064Z,84.60
2019-04-29T22:03:27.838Z,85.50
2019-04-29T22:08:38.691Z,85.80
2019-04-29T22:11:06.957Z,85.60
2019-04-29T22:13:35.503Z,85.80
2019-04-29T22:16:02.353Z,86.30
2019-04-29T22:18:29.261Z,86.50
2019-04-29T22:20:55.535Z,85.90
2019-04-29T22:23:21.747Z,86.00
2019-04-29T22:25:47.986Z,86.80
2019-04-29T22:28:17.292Z,87.20
2019-04-29T22:30:42.687Z,88.50
2019-04-29T22:33:09.604Z,88.60
2019-04-29T22:35:39.483Z,89.00
2019-04-29T22:38:07.684Z,88.00
2019-04-29T22:40:34.117Z,87.90
2019-04-29T22:43:08.768Z,87.20
2019-04-29T22:45:33.912Z,88.00
2019-04-29T22:48:12.121Z,88.00
2019-04-29T22:50:27.857Z,88.60
2019-04-29T22:52:56.700Z,88.70
2019-04-29T22:55:22.376Z,89.90
2019-04-29T22:57:48.530Z,89.90
2019-04-29T23:00:17.344Z,90.20
2019-04-29T23:02:43.618Z,90.20
2019-04-29T23:05:09.973Z,90.20
2019-04-29T23:07:37.789Z,90.10
2019-04-29T23:10:05.782Z,90.10
2019-04-29T23:12:32.122Z,90.20
2019-04-29T23:14:58.594Z,90.40
2019-04-29T23:17:25.500Z,90.60
2019-04-29T23:19:55.146Z,90.30
2019-04-29T23:22:42.433Z,90.30
2019-04-29T23:25:16.462Z,90.70
2019-04-29T23:27:43.293Z,91.00
2019-04-29T23:30:13.618Z,90.80
2019-04-29T23:32:44.283Z,91.00
2019-04-29T23:35:10.031Z,90.80
2019-04-29T23:37:36.602Z,90.70
2019-04-29T23:40:05.848Z,90.60
2019-04-29T23:42:32.377Z,90.70
2019-04-29T23:44:59.014Z,90.80
2019-04-29T23:47:25.822Z,91.00
2019-04-29T23:49:52.702Z,91.20
2019-04-29T23:52:19.322Z,91.10
2019-04-29T23:54:48.383Z,90.90
2019-04-29T23:57:27.578Z,90.60
